Hafford, Canada
Current Conditions -  °F | °C
As of 2:00 AM on Friday 31 Oct 2014 (Local Time) from CYQW Reporting Station
Overcast Overcast  
Wind Chill: 19°   Ceiling: 14000
Heat Index: 32°   Visibility: 9mi
Dew Point: 30°   Wind: 22mph
Humidity: 93%   Direction: 140°SE
Pressure: 30.11"   Gusts: NA
Location:  52.72°N, 107.35°W
Report Text: CYQW 310800Z AUTO 14019KT 9SM OVC140 M00/M01 A3011 RMK PRESFR SLP226
Loading
Personal Weather Stations






























Interactive Weather Map
Tropical Storm Tracking
New forecast layout! Learn more

10-Day Weather Forecast

Advertisements
Track Severe Weather on mobile